Maersk Visby — 9V8827 — position and weather

sailwx.info

Track history (hours):
 
Tides and Currents Weather Stations Pressure Air Temp Water Temp Dewpoint Dewpoint Depression Visibility Wind Speed Wind Dir Waves Ship Positions

Maersk Visby

Last reported at 2015-Aug-16 19:15 UTC. Time now 2015-Sep-02 08:38 UTC.
Position N 18°13' W 060°46'.
Warning: this ship's position is 16 days out of date.

Length 180 m; draft 9 m.

Type: Ship (hazmat cat A). MMSI: 564979000.

Date/timePositionNaut miles runAvg speedWind from/ knotsBaromVisibWave heightAir tempDewpointWater temp
2015-Aug-16 19:15N 18°13' W 060°46'  
2015-Aug-13 02:19N 26°29' W 078°48'1717.9
2015-Aug-13 01:23N 26°40' W 079°02'  
2015-Aug-10 21:21N 32°39' W 079°36'10 1.4
2015-Aug-10 14:22N 32°38' W 079°24'2 1.3
2015-Aug-10 13:10N 32°38' W 079°22'5 1.9
2015-Aug-10 10:16N 32°40' W 079°16'23111.0
2015-Aug-09 13:19N 34°49' W 075°26'10 8.6
2015-Aug-09 12:08N 34°56' W 075°17'5 8.1
2015-Aug-09 11:33N 34°60' W 075°13'179 5.4
2015-Aug-08 02:33N 37°53' W 076°10'1818.4
2015-Aug-08 01:33N 38°11' W 076°14'2418.6
2015-Aug-08 00:16N 38°33' W 076°26'1318.8
2015-Aug-07 23:33N 38°46' W 076°26'1717.3
2015-Aug-07 22:33N 39°03' W 076°23'1211.8
2015-Aug-07 21:33N 39°13' W 076°32'2 2.0
2015-Aug-07 20:31N 39°15' W 076°33'0 0.0
2015-Aug-07 19:31N 39°15' W 076°33'0 0.0
2015-Aug-07 18:31N 39°15' W 076°33'0 0.0
2015-Aug-07 17:31N 39°15' W 076°33'0 0.0
2015-Aug-07 16:31N 39°15' W 076°33'0 0.0
2015-Aug-07 15:31N 39°15' W 076°33'0 0.0
2015-Aug-07 14:31N 39°15' W 076°33'0 0.0
2015-Aug-07 13:31N 39°15' W 076°33'0 0.0
2015-Aug-07 12:13N 39°15' W 076°33'0 0.0
2015-Aug-07 11:31N 39°15' W 076°33'0 0.0
2015-Aug-07 10:28N 39°15' W 076°33'3 3.4
2015-Aug-07 09:33N 39°13' W 076°31'1111.0
2015-Aug-07 08:33N 39°03' W 076°23'1616.4
2015-Aug-07 07:33N 38°47' W 076°25'3617.1
2015-Aug-07 05:27N 38°12' W 076°14'1617.5
2015-Aug-07 04:33N 37°57' W 076°10'  
Track history (hours):
 
Tides and Currents Weather Stations Pressure Air Temp Water Temp Dewpoint Dewpoint Depression Visibility Wind Speed Wind Dir Waves Ship Positions

Maersk Visby

Last reported at 2015-Aug-16 19:15 UTC. Time now 2015-Sep-02 08:38 UTC.
Position N 18°13' W 060°46'.
Warning: this ship's position is 16 days out of date.

Length 180 m; draft 9 m.

Type: Ship (hazmat cat A). MMSI: 564979000.

Date/timePositionNaut miles runAvg speedWind from/ knotsBaromVisibWave heightAir tempDewpointWater temp
2015-Aug-16 19:15N 18°13' W 060°46'  
2015-Aug-13 02:19N 26°29' W 078°48'1717.9
2015-Aug-13 01:23N 26°40' W 079°02'  
2015-Aug-10 21:21N 32°39' W 079°36'10 1.4
2015-Aug-10 14:22N 32°38' W 079°24'2 1.3
2015-Aug-10 13:10N 32°38' W 079°22'5 1.9
2015-Aug-10 10:16N 32°40' W 079°16'23111.0
2015-Aug-09 13:19N 34°49' W 075°26'10 8.6
2015-Aug-09 12:08N 34°56' W 075°17'5 8.1
2015-Aug-09 11:33N 34°60' W 075°13'179 5.4
2015-Aug-08 02:33N 37°53' W 076°10'1818.4
2015-Aug-08 01:33N 38°11' W 076°14'2418.6
2015-Aug-08 00:16N 38°33' W 076°26'1318.8
2015-Aug-07 23:33N 38°46' W 076°26'1717.3
2015-Aug-07 22:33N 39°03' W 076°23'1211.8
2015-Aug-07 21:33N 39°13' W 076°32'2 2.0
2015-Aug-07 20:31N 39°15' W 076°33'0 0.0
2015-Aug-07 19:31N 39°15' W 076°33'0 0.0
2015-Aug-07 18:31N 39°15' W 076°33'0 0.0
2015-Aug-07 17:31N 39°15' W 076°33'0 0.0
2015-Aug-07 16:31N 39°15' W 076°33'0 0.0
2015-Aug-07 15:31N 39°15' W 076°33'0 0.0
2015-Aug-07 14:31N 39°15' W 076°33'0 0.0
2015-Aug-07 13:31N 39°15' W 076°33'0 0.0
2015-Aug-07 12:13N 39°15' W 076°33'0 0.0
2015-Aug-07 11:31N 39°15' W 076°33'0 0.0
2015-Aug-07 10:28N 39°15' W 076°33'3 3.4
2015-Aug-07 09:33N 39°13' W 076°31'1111.0
2015-Aug-07 08:33N 39°03' W 076°23'1616.4
2015-Aug-07 07:33N 38°47' W 076°25'3617.1
2015-Aug-07 05:27N 38°12' W 076°14'1617.5
2015-Aug-07 04:33N 37°57' W 076°10'  

Dump ship's entire track history